sensor_id;sensor_type;location;lat;lon;timestamp;temperature;humidity
47382;DHT22;33128;51.580;5.170;2023-12-14T00:01:18;12.70;99.90
47382;DHT22;33128;51.580;5.170;2023-12-14T00:03:43;13.00;99.90
47382;DHT22;33128;51.580;5.170;2023-12-14T00:06:12;13.00;99.90
47382;DHT22;33128;51.580;5.170;2023-12-14T00:08:39;12.70;99.90
47382;DHT22;33128;51.580;5.170;2023-12-14T00:11:06;12.70;99.90
47382;DHT22;33128;51.580;5.170;2023-12-14T00:13:32;12.90;99.90
47382;DHT22;33128;51.580;5.170;2023-12-14T00:15:58;12.90;99.90
47382;DHT22;33128;51.580;5.170;2023-12-14T00:18:24;12.90;99.90
47382;DHT22;33128;51.580;5.170;2023-12-14T00:20:50;12.80;99.90
47382;DHT22;33128;51.580;5.170;2023-12-14T00:23:15;12.70;99.90
47382;DHT22;33128;51.580;5.170;2023-12-14T00:25:41;12.70;99.90
47382;DHT22;33128;51.580;5.170;2023-12-14T00:28:09;12.40;99.90
47382;DHT22;33128;51.580;5.170;2023-12-14T00:30:35;12.10;99.90
47382;DHT22;33128;51.580;5.170;2023-12-14T00:33:00;12.20;99.90
47382;DHT22;33128;51.580;5.170;2023-12-14T00:35:26;12.30;99.90
47382;DHT22;33128;51.580;5.170;2023-12-14T00:37:51;12.40;99.90
47382;DHT22;33128;51.580;5.170;2023-12-14T00:40:17;12.40;99.90
47382;DHT22;33128;51.580;5.170;2023-12-14T00:42:42;12.10;99.90
47382;DHT22;33128;51.580;5.170;2023-12-14T00:45:08;11.80;99.90
47382;DHT22;33128;51.580;5.170;2023-12-14T00:47:34;11.80;99.90
47382;DHT22;33128;51.580;5.170;2023-12-14T00:50:03;11.60;99.90
47382;DHT22;33128;51.580;5.170;2023-12-14T00:52:28;11.50;99.90
47382;DHT22;33128;51.580;5.170;2023-12-14T00:54:54;11.80;99.90
47382;DHT22;33128;51.580;5.170;2023-12-14T00:57:20;12.00;99.90
47382;DHT22;33128;51.580;5.170;2023-12-14T00:59:45;12.10;99.90
47382;DHT22;33128;51.580;5.170;2023-12-14T01:02:11;12.00;99.90
47382;DHT22;33128;51.580;5.170;2023-12-14T01:04:37;12.20;99.90
47382;DHT22;33128;51.580;5.170;2023-12-14T01:07:03;12.20;99.90
47382;DHT22;33128;51.580;5.170;2023-12-14T01:09:29;12.30;99.90
47382;DHT22;33128;51.580;5.170;2023-12-14T01:11:54;12.10;99.90
47382;DHT22;33128;51.580;5.170;2023-12-14T01:14:20;11.60;99.90
47382;DHT22;33128;51.580;5.170;2023-12-14T01:16:46;11.50;99.90
47382;DHT22;33128;51.580;5.170;2023-12-14T01:19:11;11.50;99.90
47382;DHT22;33128;51.580;5.170;2023-12-14T01:21:37;11.50;99.90
47382;DHT22;33128;51.580;5.170;2023-12-14T01:24:03;11.60;99.90
47382;DHT22;33128;51.580;5.170;2023-12-14T01:26:28;11.70;99.90
47382;DHT22;33128;51.580;5.170;2023-12-14T01:28:54;11.80;99.90
47382;DHT22;33128;51.580;5.170;2023-12-14T01:31:19;11.70;99.90
47382;DHT22;33128;51.580;5.170;2023-12-14T01:33:48;11.50;99.90
47382;DHT22;33128;51.580;5.170;2023-12-14T01:36:23;11.20;99.90
47382;DHT22;33128;51.580;5.170;2023-12-14T01:38:49;11.10;99.90
47382;DHT22;33128;51.580;5.170;2023-12-14T01:41:15;10.90;99.90
47382;DHT22;33128;51.580;5.170;2023-12-14T01:43:41;11.20;99.90
47382;DHT22;33128;51.580;5.170;2023-12-14T01:46:07;10.90;99.90
47382;DHT22;33128;51.580;5.170;2023-12-14T01:48:32;11.10;99.90
47382;DHT22;33128;51.580;5.170;2023-12-14T01:50:58;11.20;99.90
47382;DHT22;33128;51.580;5.170;2023-12-14T01:53:24;11.20;99.90
47382;DHT22;33128;51.580;5.170;2023-12-14T01:55:49;11.30;99.90
47382;DHT22;33128;51.580;5.170;2023-12-14T01:58:15;11.40;99.90
47382;DHT22;33128;51.580;5.170;2023-12-14T02:03:30;11.40;99.90
47382;DHT22;33128;51.580;5.170;2023-12-14T02:05:59;11.40;99.90
47382;DHT22;33128;51.580;5.170;2023-12-14T02:08:27;11.40;99.90
47382;DHT22;33128;51.580;5.170;2023-12-14T02:10:52;11.30;99.90
47382;DHT22;33128;51.580;5.170;2023-12-14T02:13:18;11.30;99.90
47382;DHT22;33128;51.580;5.170;2023-12-14T02:15:44;11.30;99.90
47382;DHT22;33128;51.580;5.170;2023-12-14T02:18:09;11.10;99.90
47382;DHT22;33128;51.580;5.170;2023-12-14T02:20:35;11.10;99.90
47382;DHT22;33128;51.580;5.170;2023-12-14T02:23:00;11.10;99.90
47382;DHT22;33128;51.580;5.170;2023-12-14T02:25:27;11.20;99.90
47382;DHT22;33128;51.580;5.170;2023-12-14T02:27:52;11.20;99.90
47382;DHT22;33128;51.580;5.170;2023-12-14T02:30:18;11.20;99.90
47382;DHT22;33128;51.580;5.170;2023-12-14T02:32:44;11.00;99.90
47382;DHT22;33128;51.580;5.170;2023-12-14T02:35:10;11.20;99.90
47382;DHT22;33128;51.580;5.170;2023-12-14T02:37:35;11.00;99.90
47382;DHT22;33128;51.580;5.170;2023-12-14T02:40:06;11.00;99.90
47382;DHT22;33128;51.580;5.170;2023-12-14T02:42:32;11.10;99.90
47382;DHT22;33128;51.580;5.170;2023-12-14T02:44:58;11.10;99.90
47382;DHT22;33128;51.580;5.170;2023-12-14T02:47:24;11.00;99.90
47382;DHT22;33128;51.580;5.170;2023-12-14T02:49:49;10.90;99.90
47382;DHT22;33128;51.580;5.170;2023-12-14T02:52:15;11.10;99.90
47382;DHT22;33128;51.580;5.170;2023-12-14T02:54:41;11.00;99.90
47382;DHT22;33128;51.580;5.170;2023-12-14T02:57:06;10.90;99.90
47382;DHT22;33128;51.580;5.170;2023-12-14T02:59:32;10.80;99.90
47382;DHT22;33128;51.580;5.170;2023-12-14T03:01:58;10.60;99.90
47382;DHT22;33128;51.580;5.170;2023-12-14T03:04:23;10.60;99.90
47382;DHT22;33128;51.580;5.170;2023-12-14T03:06:49;10.70;99.90
47382;DHT22;33128;51.580;5.170;2023-12-14T03:09:15;10.80;99.90
47382;DHT22;33128;51.580;5.170;2023-12-14T03:11:43;10.80;99.90
47382;DHT22;33128;51.580;5.170;2023-12-14T03:14:08;10.70;99.90
47382;DHT22;33128;51.580;5.170;2023-12-14T03:16:34;10.60;99.90
47382;DHT22;33128;51.580;5.170;2023-12-14T03:19:01;10.60;99.90
47382;DHT22;33128;51.580;5.170;2023-12-14T03:21:26;10.80;99.90
47382;DHT22;33128;51.580;5.170;2023-12-14T03:23:52;10.70;99.90
47382;DHT22;33128;51.580;5.170;2023-12-14T03:26:18;10.40;99.90
47382;DHT22;33128;51.580;5.170;2023-12-14T03:28:43;10.30;99.90
47382;DHT22;33128;51.580;5.170;2023-12-14T03:31:12;10.20;99.90
47382;DHT22;33128;51.580;5.170;2023-12-14T03:33:39;10.30;99.90
47382;DHT22;33128;51.580;5.170;2023-12-14T03:36:04;10.30;99.90
47382;DHT22;33128;51.580;5.170;2023-12-14T03:38:31;10.60;99.90
47382;DHT22;33128;51.580;5.170;2023-12-14T03:40:57;10.70;99.90
47382;DHT22;33128;51.580;5.170;2023-12-14T03:43:23;10.60;99.90
47382;DHT22;33128;51.580;5.170;2023-12-14T03:45:48;10.60;99.90
47382;DHT22;33128;51.580;5.170;2023-12-14T03:48:14;10.20;99.90
47382;DHT22;33128;51.580;5.170;2023-12-14T03:50:39;10.20;99.90
47382;DHT22;33128;51.580;5.170;2023-12-14T03:53:05;10.60;99.90
47382;DHT22;33128;51.580;5.170;2023-12-14T03:55:30;10.70;99.90
47382;DHT22;33128;51.580;5.170;2023-12-14T03:57:56;10.50;99.90
47382;DHT22;33128;51.580;5.170;2023-12-14T04:00:22;10.30;99.90
47382;DHT22;33128;51.580;5.170;2023-12-14T04:02:48;10.10;99.90
47382;DHT22;33128;51.580;5.170;2023-12-14T04:05:13;9.90;99.90
47382;DHT22;33128;51.580;5.170;2023-12-14T04:07:39;9.90;99.90
47382;DHT22;33128;51.580;5.170;2023-12-14T04:10:14;9.90;99.90
47382;DHT22;33128;51.580;5.170;2023-12-14T04:12:40;10.00;99.90
47382;DHT22;33128;51.580;5.170;2023-12-14T04:15:07;10.20;99.90
47382;DHT22;33128;51.580;5.170;2023-12-14T04:17:34;10.20;99.90
47382;DHT22;33128;51.580;5.170;2023-12-14T04:20:02;10.20;99.90
47382;DHT22;33128;51.580;5.170;2023-12-14T04:22:31;10.40;99.90
47382;DHT22;33128;51.580;5.170;2023-12-14T04:24:56;10.30;99.90
47382;DHT22;33128;51.580;5.170;2023-12-14T04:27:22;10.20;99.90
47382;DHT22;33128;51.580;5.170;2023-12-14T04:29:52;10.00;99.90
47382;DHT22;33128;51.580;5.170;2023-12-14T04:32:17;10.10;99.90
47382;DHT22;33128;51.580;5.170;2023-12-14T04:34:43;10.00;99.90
47382;DHT22;33128;51.580;5.170;2023-12-14T04:37:09;10.30;99.90
47382;DHT22;33128;51.580;5.170;2023-12-14T04:39:34;10.10;99.90
47382;DHT22;33128;51.580;5.170;2023-12-14T04:42:00;10.10;99.90
47382;DHT22;33128;51.580;5.170;2023-12-14T04:44:25;10.10;99.90
47382;DHT22;33128;51.580;5.170;2023-12-14T04:46:51;10.20;99.90
47382;DHT22;33128;51.580;5.170;2023-12-14T04:49:18;10.20;99.90
47382;DHT22;33128;51.580;5.170;2023-12-14T04:51:44;10.10;99.90
47382;DHT22;33128;51.580;5.170;2023-12-14T04:54:10;10.10;99.90
47382;DHT22;33128;51.580;5.170;2023-12-14T04:56:35;10.20;99.90
47382;DHT22;33128;51.580;5.170;2023-12-14T04:59:01;10.20;99.90
47382;DHT22;33128;51.580;5.170;2023-12-14T05:01:26;10.20;99.90
47382;DHT22;33128;51.580;5.170;2023-12-14T05:03:53;10.20;99.90
47382;DHT22;33128;51.580;5.170;2023-12-14T05:06:18;10.10;99.90
47382;DHT22;33128;51.580;5.170;2023-12-14T05:08:44;10.00;99.90
47382;DHT22;33128;51.580;5.170;2023-12-14T05:11:09;9.90;99.90
47382;DHT22;33128;51.580;5.170;2023-12-14T05:13:35;9.90;99.90
47382;DHT22;33128;51.580;5.170;2023-12-14T05:16:01;9.70;99.90
47382;DHT22;33128;51.580;5.170;2023-12-14T05:18:27;9.70;99.90
47382;DHT22;33128;51.580;5.170;2023-12-14T05:20:53;9.70;99.90
47382;DHT22;33128;51.580;5.170;2023-12-14T05:23:18;9.90;99.90
47382;DHT22;33128;51.580;5.170;2023-12-14T05:25:44;9.80;99.90
47382;DHT22;33128;51.580;5.170;2023-12-14T05:28:10;9.80;99.90
47382;DHT22;33128;51.580;5.170;2023-12-14T05:30:35;9.60;99.90
47382;DHT22;33128;51.580;5.170;2023-12-14T05:33:01;9.70;99.90
47382;DHT22;33128;51.580;5.170;2023-12-14T05:35:27;9.70;99.90
47382;DHT22;33128;51.580;5.170;2023-12-14T05:37:52;9.70;99.90
47382;DHT22;33128;51.580;5.170;2023-12-14T05:40:18;9.70;99.90
47382;DHT22;33128;51.580;5.170;2023-12-14T05:42:44;9.60;99.90
47382;DHT22;33128;51.580;5.170;2023-12-14T05:45:09;9.60;99.90
47382;DHT22;33128;51.580;5.170;2023-12-14T05:47:35;9.60;99.90
47382;DHT22;33128;51.580;5.170;2023-12-14T05:50:04;9.90;99.90
47382;DHT22;33128;51.580;5.170;2023-12-14T05:52:30;9.90;99.90
47382;DHT22;33128;51.580;5.170;2023-12-14T05:54:56;10.00;99.90
47382;DHT22;33128;51.580;5.170;2023-12-14T05:57:21;10.00;99.90
47382;DHT22;33128;51.580;5.170;2023-12-14T05:59:49;10.00;99.90
47382;DHT22;33128;51.580;5.170;2023-12-14T06:02:15;10.00;99.90
47382;DHT22;33128;51.580;5.170;2023-12-14T06:04:40;9.80;99.90
47382;DHT22;33128;51.580;5.170;2023-12-14T06:07:06;9.80;99.90
47382;DHT22;33128;51.580;5.170;2023-12-14T06:09:31;9.70;99.90
47382;DHT22;33128;51.580;5.170;2023-12-14T06:12:01;9.80;99.90
47382;DHT22;33128;51.580;5.170;2023-12-14T06:14:27;9.70;99.90
47382;DHT22;33128;51.580;5.170;2023-12-14T06:16:53;10.00;99.90
47382;DHT22;33128;51.580;5.170;2023-12-14T06:19:18;10.10;99.90
47382;DHT22;33128;51.580;5.170;2023-12-14T06:21:44;10.30;99.90
47382;DHT22;33128;51.580;5.170;2023-12-14T06:24:09;10.40;99.90
47382;DHT22;33128;51.580;5.170;2023-12-14T06:26:35;10.40;99.90
47382;DHT22;33128;51.580;5.170;2023-12-14T06:29:08;10.30;99.90
47382;DHT22;33128;51.580;5.170;2023-12-14T06:31:34;10.10;99.90
47382;DHT22;33128;51.580;5.170;2023-12-14T06:33:59;9.90;99.90
47382;DHT22;33128;51.580;5.170;2023-12-14T06:36:28;9.80;99.90
47382;DHT22;33128;51.580;5.170;2023-12-14T06:38:55;9.90;99.90
47382;DHT22;33128;51.580;5.170;2023-12-14T06:41:29;9.90;99.90
47382;DHT22;33128;51.580;5.170;2023-12-14T06:43:55;9.80;99.90
47382;DHT22;33128;51.580;5.170;2023-12-14T06:46:21;9.70;99.90
47382;DHT22;33128;51.580;5.170;2023-12-14T06:48:47;9.80;99.90
47382;DHT22;33128;51.580;5.170;2023-12-14T06:51:13;9.80;99.90
47382;DHT22;33128;51.580;5.170;2023-12-14T06:53:42;9.80;99.90
47382;DHT22;33128;51.580;5.170;2023-12-14T06:56:09;9.60;99.90
47382;DHT22;33128;51.580;5.170;2023-12-14T06:58:37;9.80;99.90
47382;DHT22;33128;51.580;5.170;2023-12-14T07:01:02;9.90;99.90
47382;DHT22;33128;51.580;5.170;2023-12-14T07:03:28;9.90;99.90
47382;DHT22;33128;51.580;5.170;2023-12-14T07:05:54;9.80;99.90
47382;DHT22;33128;51.580;5.170;2023-12-14T07:08:19;9.90;99.90
47382;DHT22;33128;51.580;5.170;2023-12-14T07:10:45;9.80;99.90
47382;DHT22;33128;51.580;5.170;2023-12-14T07:13:10;9.80;99.90
47382;DHT22;33128;51.580;5.170;2023-12-14T07:15:36;9.80;99.90
47382;DHT22;33128;51.580;5.170;2023-12-14T07:18:01;9.80;99.90
47382;DHT22;33128;51.580;5.170;2023-12-14T07:20:27;9.90;99.90
47382;DHT22;33128;51.580;5.170;2023-12-14T07:22:56;9.80;99.90
47382;DHT22;33128;51.580;5.170;2023-12-14T07:25:21;10.00;99.90
47382;DHT22;33128;51.580;5.170;2023-12-14T07:27:47;10.10;99.90
47382;DHT22;33128;51.580;5.170;2023-12-14T07:30:13;9.80;99.90
47382;DHT22;33128;51.580;5.170;2023-12-14T07:32:42;9.80;99.90
47382;DHT22;33128;51.580;5.170;2023-12-14T07:35:08;9.80;99.90
47382;DHT22;33128;51.580;5.170;2023-12-14T07:37:34;9.60;99.90
47382;DHT22;33128;51.580;5.170;2023-12-14T07:39:59;9.70;99.90
47382;DHT22;33128;51.580;5.170;2023-12-14T07:42:25;9.60;99.90
47382;DHT22;33128;51.580;5.170;2023-12-14T07:44:51;9.60;99.90
47382;DHT22;33128;51.580;5.170;2023-12-14T07:47:17;9.40;99.90
47382;DHT22;33128;51.580;5.170;2023-12-14T07:49:42;9.20;99.90
47382;DHT22;33128;51.580;5.170;2023-12-14T07:52:08;9.30;99.90
47382;DHT22;33128;51.580;5.170;2023-12-14T07:54:35;9.40;99.90
47382;DHT22;33128;51.580;5.170;2023-12-14T07:57:01;9.10;99.90
47382;DHT22;33128;51.580;5.170;2023-12-14T07:59:26;9.40;99.90
47382;DHT22;33128;51.580;5.170;2023-12-14T08:01:52;9.60;99.90
47382;DHT22;33128;51.580;5.170;2023-12-14T08:04:18;9.50;99.90
47382;DHT22;33128;51.580;5.170;2023-12-14T08:06:43;9.40;99.90
47382;DHT22;33128;51.580;5.170;2023-12-14T08:09:09;9.50;99.90
47382;DHT22;33128;51.580;5.170;2023-12-14T08:11:37;9.50;99.90
47382;DHT22;33128;51.580;5.170;2023-12-14T08:14:03;9.90;99.90
47382;DHT22;33128;51.580;5.170;2023-12-14T08:16:28;10.20;99.90
47382;DHT22;33128;51.580;5.170;2023-12-14T08:18:54;9.90;99.90
47382;DHT22;33128;51.580;5.170;2023-12-14T08:21:19;9.80;99.90
47382;DHT22;33128;51.580;5.170;2023-12-14T08:23:45;9.60;99.90
47382;DHT22;33128;51.580;5.170;2023-12-14T08:26:11;9.60;99.90
47382;DHT22;33128;51.580;5.170;2023-12-14T08:28:38;9.70;99.90
47382;DHT22;33128;51.580;5.170;2023-12-14T08:31:07;9.70;99.90
47382;DHT22;33128;51.580;5.170;2023-12-14T08:33:38;9.60;99.90
47382;DHT22;33128;51.580;5.170;2023-12-14T08:36:06;9.80;99.90
47382;DHT22;33128;51.580;5.170;2023-12-14T08:38:32;9.80;99.90
47382;DHT22;33128;51.580;5.170;2023-12-14T08:40:57;9.70;99.90
47382;DHT22;33128;51.580;5.170;2023-12-14T08:43:23;10.00;99.90
47382;DHT22;33128;51.580;5.170;2023-12-14T08:45:48;9.50;99.90
47382;DHT22;33128;51.580;5.170;2023-12-14T08:48:14;9.30;99.90
47382;DHT22;33128;51.580;5.170;2023-12-14T08:50:40;9.20;99.90
47382;DHT22;33128;51.580;5.170;2023-12-14T08:53:05;9.30;99.90
47382;DHT22;33128;51.580;5.170;2023-12-14T08:55:32;9.40;99.90
47382;DHT22;33128;51.580;5.170;2023-12-14T08:57:57;9.40;99.90
47382;DHT22;33128;51.580;5.170;2023-12-14T09:00:27;9.40;99.90
47382;DHT22;33128;51.580;5.170;2023-12-14T09:02:52;9.60;99.90
47382;DHT22;33128;51.580;5.170;2023-12-14T09:05:18;9.50;99.90
47382;DHT22;33128;51.580;5.170;2023-12-14T09:07:46;9.80;99.90
47382;DHT22;33128;51.580;5.170;2023-12-14T09:10:12;9.70;99.90
47382;DHT22;33128;51.580;5.170;2023-12-14T09:12:38;10.10;99.90
47382;DHT22;33128;51.580;5.170;2023-12-14T09:15:04;10.30;99.90
47382;DHT22;33128;51.580;5.170;2023-12-14T09:17:29;10.60;99.90
47382;DHT22;33128;51.580;5.170;2023-12-14T09:20:01;10.70;99.90
47382;DHT22;33128;51.580;5.170;2023-12-14T09:22:30;10.70;99.90
47382;DHT22;33128;51.580;5.170;2023-12-14T09:24:55;10.50;99.90
47382;DHT22;33128;51.580;5.170;2023-12-14T09:27:21;11.20;99.90
47382;DHT22;33128;51.580;5.170;2023-12-14T09:29:47;11.00;99.90
47382;DHT22;33128;51.580;5.170;2023-12-14T09:32:12;10.90;99.90
47382;DHT22;33128;51.580;5.170;2023-12-14T09:34:38;10.40;99.90
47382;DHT22;33128;51.580;5.170;2023-12-14T09:37:04;10.20;99.90
47382;DHT22;33128;51.580;5.170;2023-12-14T09:39:30;10.30;99.90
47382;DHT22;33128;51.580;5.170;2023-12-14T09:42:03;9.90;99.90
47382;DHT22;33128;51.580;5.170;2023-12-14T09:44:30;10.10;99.90
47382;DHT22;33128;51.580;5.170;2023-12-14T09:46:59;10.00;99.90
47382;DHT22;33128;51.580;5.170;2023-12-14T09:49:26;10.10;99.90
47382;DHT22;33128;51.580;5.170;2023-12-14T09:51:55;10.00;99.90
47382;DHT22;33128;51.580;5.170;2023-12-14T09:54:22;10.00;99.90
47382;DHT22;33128;51.580;5.170;2023-12-14T09:56:48;9.60;99.90
47382;DHT22;33128;51.580;5.170;2023-12-14T09:59:14;9.50;99.90
47382;DHT22;33128;51.580;5.170;2023-12-14T10:01:40;9.90;99.90
47382;DHT22;33128;51.580;5.170;2023-12-14T10:04:12;10.10;99.90
47382;DHT22;33128;51.580;5.170;2023-12-14T10:06:39;10.10;99.90
47382;DHT22;33128;51.580;5.170;2023-12-14T10:09:05;10.10;99.90
47382;DHT22;33128;51.580;5.170;2023-12-14T10:11:35;10.10;99.90
47382;DHT22;33128;51.580;5.170;2023-12-14T10:14:02;10.20;99.90
47382;DHT22;33128;51.580;5.170;2023-12-14T10:16:32;10.30;99.90
47382;DHT22;33128;51.580;5.170;2023-12-14T10:18:59;10.40;99.90
47382;DHT22;33128;51.580;5.170;2023-12-14T10:21:28;10.40;99.90
47382;DHT22;33128;51.580;5.170;2023-12-14T10:23:57;10.50;99.90
47382;DHT22;33128;51.580;5.170;2023-12-14T10:26:25;10.70;99.90
47382;DHT22;33128;51.580;5.170;2023-12-14T10:28:52;10.90;99.90
47382;DHT22;33128;51.580;5.170;2023-12-14T10:31:18;11.40;99.90
47382;DHT22;33128;51.580;5.170;2023-12-14T10:33:47;11.00;99.90
47382;DHT22;33128;51.580;5.170;2023-12-14T10:36:13;10.90;99.90
47382;DHT22;33128;51.580;5.170;2023-12-14T10:38:40;10.70;99.90
47382;DHT22;33128;51.580;5.170;2023-12-14T10:41:09;10.80;99.90
47382;DHT22;33128;51.580;5.170;2023-12-14T10:43:39;10.80;99.90
47382;DHT22;33128;51.580;5.170;2023-12-14T10:46:07;10.80;99.90
47382;DHT22;33128;51.580;5.170;2023-12-14T10:48:35;10.50;99.90
47382;DHT22;33128;51.580;5.170;2023-12-14T10:51:02;10.30;99.90
47382;DHT22;33128;51.580;5.170;2023-12-14T10:53:31;10.40;99.90
47382;DHT22;33128;51.580;5.170;2023-12-14T10:55:59;10.40;99.90
47382;DHT22;33128;51.580;5.170;2023-12-14T10:58:25;10.40;99.90
47382;DHT22;33128;51.580;5.170;2023-12-14T11:01:00;10.40;99.90
47382;DHT22;33128;51.580;5.170;2023-12-14T11:03:27;10.40;99.90
47382;DHT22;33128;51.580;5.170;2023-12-14T11:05:59;10.20;99.90
47382;DHT22;33128;51.580;5.170;2023-12-14T11:08:25;10.10;99.90
47382;DHT22;33128;51.580;5.170;2023-12-14T11:10:59;9.80;99.90
47382;DHT22;33128;51.580;5.170;2023-12-14T11:13:34;9.80;99.90
47382;DHT22;33128;51.580;5.170;2023-12-14T11:16:01;10.00;99.90
47382;DHT22;33128;51.580;5.170;2023-12-14T11:18:27;10.20;99.90
47382;DHT22;33128;51.580;5.170;2023-12-14T11:21:00;10.20;99.90
47382;DHT22;33128;51.580;5.170;2023-12-14T11:23:30;10.20;99.90
47382;DHT22;33128;51.580;5.170;2023-12-14T11:26:22;10.50;99.90
47382;DHT22;33128;51.580;5.170;2023-12-14T11:28:50;10.50;99.90
47382;DHT22;33128;51.580;5.170;2023-12-14T11:31:16;10.60;99.90
47382;DHT22;33128;51.580;5.170;2023-12-14T11:33:43;11.10;99.90
47382;DHT22;33128;51.580;5.170;2023-12-14T11:36:11;10.70;99.90
47382;DHT22;33128;51.580;5.170;2023-12-14T11:38:37;11.00;99.90
47382;DHT22;33128;51.580;5.170;2023-12-14T11:41:04;11.30;99.90
47382;DHT22;33128;51.580;5.170;2023-12-14T11:43:29;12.00;99.90
47382;DHT22;33128;51.580;5.170;2023-12-14T11:45:55;12.00;99.90
47382;DHT22;33128;51.580;5.170;2023-12-14T11:48:21;11.70;99.90
47382;DHT22;33128;51.580;5.170;2023-12-14T11:50:50;11.90;99.90
47382;DHT22;33128;51.580;5.170;2023-12-14T11:53:16;12.50;99.90
47382;DHT22;33128;51.580;5.170;2023-12-14T11:55:43;12.10;99.90
47382;DHT22;33128;51.580;5.170;2023-12-14T11:58:13;11.50;99.90
47382;DHT22;33128;51.580;5.170;2023-12-14T12:00:40;11.50;99.90
47382;DHT22;33128;51.580;5.170;2023-12-14T12:03:19;10.80;99.90
47382;DHT22;33128;51.580;5.170;2023-12-14T12:05:50;10.70;99.90
47382;DHT22;33128;51.580;5.170;2023-12-14T12:08:18;10.50;99.90
47382;DHT22;33128;51.580;5.170;2023-12-14T12:10:44;10.40;99.90
47382;DHT22;33128;51.580;5.170;2023-12-14T12:13:20;10.20;99.90
47382;DHT22;33128;51.580;5.170;2023-12-14T12:15:46;9.80;99.90
47382;DHT22;33128;51.580;5.170;2023-12-14T12:18:13;9.70;99.90
47382;DHT22;33128;51.580;5.170;2023-12-14T12:20:39;9.70;99.90
47382;DHT22;33128;51.580;5.170;2023-12-14T12:23:05;9.80;99.90
47382;DHT22;33128;51.580;5.170;2023-12-14T12:25:31;9.50;99.90
47382;DHT22;33128;51.580;5.170;2023-12-14T12:28:00;9.70;99.90
47382;DHT22;33128;51.580;5.170;2023-12-14T12:30:27;9.80;99.90
47382;DHT22;33128;51.580;5.170;2023-12-14T12:32:53;10.10;99.90
47382;DHT22;33128;51.580;5.170;2023-12-14T12:35:21;10.40;99.90
47382;DHT22;33128;51.580;5.170;2023-12-14T12:37:47;10.40;99.90
47382;DHT22;33128;51.580;5.170;2023-12-14T12:40:19;10.90;99.90
47382;DHT22;33128;51.580;5.170;2023-12-14T12:42:45;11.00;99.90
47382;DHT22;33128;51.580;5.170;2023-12-14T12:45:14;10.60;99.90
47382;DHT22;33128;51.580;5.170;2023-12-14T12:47:39;10.80;99.90
47382;DHT22;33128;51.580;5.170;2023-12-14T12:50:05;10.70;99.90
47382;DHT22;33128;51.580;5.170;2023-12-14T12:52:31;10.80;99.90
47382;DHT22;33128;51.580;5.170;2023-12-14T12:54:59;10.80;99.90
47382;DHT22;33128;51.580;5.170;2023-12-14T12:57:25;11.00;99.90
47382;DHT22;33128;51.580;5.170;2023-12-14T12:59:54;10.50;99.90
47382;DHT22;33128;51.580;5.170;2023-12-14T13:02:23;10.70;99.90
47382;DHT22;33128;51.580;5.170;2023-12-14T13:04:48;10.60;99.90
47382;DHT22;33128;51.580;5.170;2023-12-14T13:07:15;10.50;99.90
47382;DHT22;33128;51.580;5.170;2023-12-14T13:09:41;10.60;99.90
47382;DHT22;33128;51.580;5.170;2023-12-14T13:12:07;10.80;99.90
47382;DHT22;33128;51.580;5.170;2023-12-14T13:14:33;10.70;99.90
47382;DHT22;33128;51.580;5.170;2023-12-14T13:16:58;10.50;99.90
47382;DHT22;33128;51.580;5.170;2023-12-14T13:19:24;10.40;99.90
47382;DHT22;33128;51.580;5.170;2023-12-14T13:21:51;10.30;99.90
47382;DHT22;33128;51.580;5.170;2023-12-14T13:24:17;10.00;99.90
47382;DHT22;33128;51.580;5.170;2023-12-14T13:26:43;9.80;99.90
47382;DHT22;33128;51.580;5.170;2023-12-14T13:29:08;9.80;99.90
47382;DHT22;33128;51.580;5.170;2023-12-14T13:31:34;10.10;99.90
47382;DHT22;33128;51.580;5.170;2023-12-14T13:33:59;10.20;99.90
47382;DHT22;33128;51.580;5.170;2023-12-14T13:36:25;10.10;99.90
47382;DHT22;33128;51.580;5.170;2023-12-14T13:38:50;10.00;99.90
47382;DHT22;33128;51.580;5.170;2023-12-14T13:41:16;10.10;99.90
47382;DHT22;33128;51.580;5.170;2023-12-14T13:43:42;10.20;99.90
47382;DHT22;33128;51.580;5.170;2023-12-14T13:46:09;10.30;99.90
47382;DHT22;33128;51.580;5.170;2023-12-14T13:48:34;10.20;99.90
47382;DHT22;33128;51.580;5.170;2023-12-14T13:51:00;10.20;99.90
47382;DHT22;33128;51.580;5.170;2023-12-14T13:53:26;10.20;99.90
47382;DHT22;33128;51.580;5.170;2023-12-14T13:55:51;10.10;99.90
47382;DHT22;33128;51.580;5.170;2023-12-14T13:58:17;10.00;99.90
47382;DHT22;33128;51.580;5.170;2023-12-14T14:00:46;10.00;99.90
47382;DHT22;33128;51.580;5.170;2023-12-14T14:03:12;9.90;99.90
47382;DHT22;33128;51.580;5.170;2023-12-14T14:05:37;10.00;99.90
47382;DHT22;33128;51.580;5.170;2023-12-14T14:08:03;10.10;99.90
47382;DHT22;33128;51.580;5.170;2023-12-14T14:10:29;10.20;99.90
47382;DHT22;33128;51.580;5.170;2023-12-14T14:12:54;10.20;99.90
47382;DHT22;33128;51.580;5.170;2023-12-14T14:15:21;10.20;99.90
47382;DHT22;33128;51.580;5.170;2023-12-14T14:17:47;10.10;99.90
47382;DHT22;33128;51.580;5.170;2023-12-14T14:20:16;10.10;99.90
47382;DHT22;33128;51.580;5.170;2023-12-14T14:22:42;9.90;99.90
47382;DHT22;33128;51.580;5.170;2023-12-14T14:25:08;9.90;99.90
47382;DHT22;33128;51.580;5.170;2023-12-14T14:27:34;9.80;99.90
47382;DHT22;33128;51.580;5.170;2023-12-14T14:29:59;9.90;99.90
47382;DHT22;33128;51.580;5.170;2023-12-14T14:32:25;9.80;99.90
47382;DHT22;33128;51.580;5.170;2023-12-14T14:34:51;9.80;99.90
47382;DHT22;33128;51.580;5.170;2023-12-14T14:37:18;9.70;99.90
47382;DHT22;33128;51.580;5.170;2023-12-14T14:39:44;9.90;99.90
47382;DHT22;33128;51.580;5.170;2023-12-14T14:42:09;10.00;99.90
47382;DHT22;33128;51.580;5.170;2023-12-14T14:44:35;9.90;99.90
47382;DHT22;33128;51.580;5.170;2023-12-14T14:47:02;10.00;99.90
47382;DHT22;33128;51.580;5.170;2023-12-14T14:49:27;10.10;99.90
47382;DHT22;33128;51.580;5.170;2023-12-14T14:51:53;10.10;99.90
47382;DHT22;33128;51.580;5.170;2023-12-14T14:54:19;10.10;99.90
47382;DHT22;33128;51.580;5.170;2023-12-14T14:56:44;10.10;99.90
47382;DHT22;33128;51.580;5.170;2023-12-14T14:59:10;10.10;99.90
47382;DHT22;33128;51.580;5.170;2023-12-14T15:01:37;10.20;99.90
47382;DHT22;33128;51.580;5.170;2023-12-14T15:04:03;10.20;99.90
47382;DHT22;33128;51.580;5.170;2023-12-14T15:06:29;10.20;99.90
47382;DHT22;33128;51.580;5.170;2023-12-14T15:08:54;10.30;99.90
47382;DHT22;33128;51.580;5.170;2023-12-14T15:11:20;10.30;99.90
47382;DHT22;33128;51.580;5.170;2023-12-14T15:13:45;10.20;99.90
47382;DHT22;33128;51.580;5.170;2023-12-14T15:16:11;10.30;99.90
47382;DHT22;33128;51.580;5.170;2023-12-14T15:18:37;10.10;99.90
47382;DHT22;33128;51.580;5.170;2023-12-14T15:21:07;9.80;99.90
47382;DHT22;33128;51.580;5.170;2023-12-14T15:23:33;9.80;99.90
47382;DHT22;33128;51.580;5.170;2023-12-14T15:26:02;9.80;99.90
47382;DHT22;33128;51.580;5.170;2023-12-14T15:28:28;9.60;99.90
47382;DHT22;33128;51.580;5.170;2023-12-14T15:30:53;9.60;99.90
47382;DHT22;33128;51.580;5.170;2023-12-14T15:33:19;9.70;99.90